sensor_id;sensor_type;location;lat;lon;timestamp;pressure;altitude;pressure_sealevel;temperature;humidity
73674;BME280;61975;48.660;10.164;2022-08-01T00:01:34;95654.25;;;20.47;52.60
73674;BME280;61975;48.660;10.164;2022-08-01T00:04:00;95651.66;;;20.53;52.17
73674;BME280;61975;48.660;10.164;2022-08-01T00:06:26;95650.75;;;20.56;52.07
73674;BME280;61975;48.660;10.164;2022-08-01T00:08:51;95657.19;;;20.56;52.17
73674;BME280;61975;48.660;10.164;2022-08-01T00:11:16;95655.97;;;20.57;52.54
73674;BME280;61975;48.660;10.164;2022-08-01T00:13:42;95655.25;;;20.53;52.89
73674;BME280;61975;48.660;10.164;2022-08-01T00:16:07;95657.75;;;20.51;53.59
73674;BME280;61975;48.660;10.164;2022-08-01T00:18:33;95661.53;;;20.45;54.34
73674;BME280;61975;48.660;10.164;2022-08-01T00:20:59;95671.69;;;20.42;54.55
73674;BME280;61975;48.660;10.164;2022-08-01T00:23:24;95656.47;;;20.40;54.94
73674;BME280;61975;48.660;10.164;2022-08-01T00:25:50;95664.31;;;20.32;55.06
73674;BME280;61975;48.660;10.164;2022-08-01T00:28:15;95668.22;;;20.22;56.29
73674;BME280;61975;48.660;10.164;2022-08-01T00:30:41;95663.31;;;20.10;57.31
73674;BME280;61975;48.660;10.164;2022-08-01T00:33:06;95664.38;;;20.00;58.14
73674;BME280;61975;48.660;10.164;2022-08-01T00:35:32;95666.25;;;19.91;58.15
73674;BME280;61975;48.660;10.164;2022-08-01T00:37:57;95662.75;;;19.87;57.62
73674;BME280;61975;48.660;10.164;2022-08-01T00:40:23;95659.56;;;19.85;56.53
73674;BME280;61975;48.660;10.164;2022-08-01T00:42:48;95652.88;;;19.79;56.63
73674;BME280;61975;48.660;10.164;2022-08-01T00:45:14;95656.13;;;19.77;55.82
73674;BME280;61975;48.660;10.164;2022-08-01T00:47:40;95656.13;;;19.77;56.08
73674;BME280;61975;48.660;10.164;2022-08-01T00:50:05;95659.31;;;19.79;55.93
73674;BME280;61975;48.660;10.164;2022-08-01T00:52:32;95642.34;;;19.83;55.77
73674;BME280;61975;48.660;10.164;2022-08-01T00:54:58;95650.00;;;19.82;55.45
73674;BME280;61975;48.660;10.164;2022-08-01T00:57:24;95659.94;;;19.87;54.58
73674;BME280;61975;48.660;10.164;2022-08-01T00:59:50;95655.88;;;19.88;54.59
73674;BME280;61975;48.660;10.164;2022-08-01T01:02:17;95653.75;;;19.92;53.99
73674;BME280;61975;48.660;10.164;2022-08-01T01:04:43;95661.75;;;19.93;54.07
73674;BME280;61975;48.660;10.164;2022-08-01T01:10:00;95652.88;;;19.95;54.43
73674;BME280;61975;48.660;10.164;2022-08-01T01:15:31;95663.00;;;19.92;54.39
73674;BME280;61975;48.660;10.164;2022-08-01T01:18:07;95668.63;;;19.92;54.45
73674;BME280;61975;48.660;10.164;2022-08-01T01:20:37;95664.78;;;19.86;54.92
73674;BME280;61975;48.660;10.164;2022-08-01T01:23:15;95672.69;;;19.91;54.38
73674;BME280;61975;48.660;10.164;2022-08-01T01:26:28;95674.34;;;19.89;54.08
73674;BME280;61975;48.660;10.164;2022-08-01T01:31:06;95669.53;;;19.89;53.90
73674;BME280;61975;48.660;10.164;2022-08-01T01:33:34;95675.03;;;19.93;53.53
73674;BME280;61975;48.660;10.164;2022-08-01T01:36:05;95666.25;;;19.91;53.36
73674;BME280;61975;48.660;10.164;2022-08-01T01:38:36;95669.41;;;19.93;53.62
73674;BME280;61975;48.660;10.164;2022-08-01T01:41:03;95670.66;;;19.92;53.56
73674;BME280;61975;48.660;10.164;2022-08-01T01:43:30;95674.28;;;19.92;53.74
73674;BME280;61975;48.660;10.164;2022-08-01T01:45:57;95672.50;;;19.98;52.91
73674;BME280;61975;48.660;10.164;2022-08-01T01:48:24;95668.09;;;19.97;53.24
73674;BME280;61975;48.660;10.164;2022-08-01T01:50:52;95669.69;;;19.98;53.48
73674;BME280;61975;48.660;10.164;2022-08-01T01:53:20;95672.50;;;19.98;53.33
73674;BME280;61975;48.660;10.164;2022-08-01T01:55:50;95666.88;;;19.98;53.21
73674;BME280;61975;48.660;10.164;2022-08-01T01:58:17;95670.91;;;19.97;53.38
73674;BME280;61975;48.660;10.164;2022-08-01T02:00:45;95668.88;;;19.98;53.45
73674;BME280;61975;48.660;10.164;2022-08-01T02:03:12;95665.28;;;19.97;53.47
73674;BME280;61975;48.660;10.164;2022-08-01T02:05:38;95665.38;;;19.94;53.59
73674;BME280;61975;48.660;10.164;2022-08-01T02:08:06;95667.06;;;19.91;53.69
73674;BME280;61975;48.660;10.164;2022-08-01T02:10:34;95675.84;;;19.93;53.61
73674;BME280;61975;48.660;10.164;2022-08-01T02:13:03;95668.63;;;19.92;53.79
73674;BME280;61975;48.660;10.164;2022-08-01T02:15:30;95679.91;;;19.92;54.12
73674;BME280;61975;48.660;10.164;2022-08-01T02:17:57;95685.53;;;19.92;54.08
73674;BME280;61975;48.660;10.164;2022-08-01T02:20:27;95676.72;;;19.90;53.81
73674;BME280;61975;48.660;10.164;2022-08-01T02:23:04;95674.72;;;19.91;54.80
73674;BME280;61975;48.660;10.164;2022-08-01T02:25:36;95683.78;;;19.82;55.02
73674;BME280;61975;48.660;10.164;2022-08-01T02:28:10;95690.66;;;19.81;55.09
73674;BME280;61975;48.660;10.164;2022-08-01T02:30:42;95686.63;;;19.82;54.80
73674;BME280;61975;48.660;10.164;2022-08-01T02:33:15;95677.47;;;19.78;54.63
73674;BME280;61975;48.660;10.164;2022-08-01T02:35:43;95688.28;;;19.80;54.30
73674;BME280;61975;48.660;10.164;2022-08-01T02:38:14;95690.66;;;19.81;54.41
73674;BME280;61975;48.660;10.164;2022-08-01T02:40:45;95683.78;;;19.82;54.38
73674;BME280;61975;48.660;10.164;2022-08-01T02:43:12;95683.44;;;19.80;54.42
73674;BME280;61975;48.660;10.164;2022-08-01T02:45:42;95690.66;;;19.81;54.49
73674;BME280;61975;48.660;10.164;2022-08-01T02:48:11;95683.25;;;19.87;54.25
73674;BME280;61975;48.660;10.164;2022-08-01T02:50:39;95680.97;;;19.82;54.64
73674;BME280;61975;48.660;10.164;2022-08-01T02:53:07;95684.22;;;19.81;54.78
73674;BME280;61975;48.660;10.164;2022-08-01T02:55:35;95687.84;;;19.81;54.69
73674;BME280;61975;48.660;10.164;2022-08-01T02:58:03;95686.25;;;19.80;55.03
73674;BME280;61975;48.660;10.164;2022-08-01T03:00:29;95690.75;;;19.78;55.08
73674;BME280;61975;48.660;10.164;2022-08-01T03:02:57;95686.00;;;19.75;55.28
73674;BME280;61975;48.660;10.164;2022-08-01T03:05:24;95682.41;;;19.74;55.33
73674;BME280;61975;48.660;10.164;2022-08-01T03:07:51;95683.97;;;19.75;55.22
73674;BME280;61975;48.660;10.164;2022-08-01T03:10:19;95686.34;;;19.77;55.20
73674;BME280;61975;48.660;10.164;2022-08-01T03:12:46;95690.41;;;19.76;55.31
73674;BME280;61975;48.660;10.164;2022-08-01T03:15:14;95688.38;;;19.76;55.18
73674;BME280;61975;48.660;10.164;2022-08-01T03:17:43;95689.16;;;19.77;55.24
73674;BME280;61975;48.660;10.164;2022-08-01T03:20:11;95682.75;;;19.76;55.21
73674;BME280;61975;48.660;10.164;2022-08-01T03:22:39;95696.06;;;19.76;55.25
73674;BME280;61975;48.660;10.164;2022-08-01T03:25:06;95694.81;;;19.77;55.30
73674;BME280;61975;48.660;10.164;2022-08-01T03:27:33;95691.63;;;19.75;55.64
73674;BME280;61975;48.660;10.164;2022-08-01T03:30:03;95696.13;;;19.72;55.68
73674;BME280;61975;48.660;10.164;2022-08-01T03:32:30;95699.81;;;19.69;55.84
73674;BME280;61975;48.660;10.164;2022-08-01T03:34:56;95694.19;;;19.69;55.84
73674;BME280;61975;48.660;10.164;2022-08-01T03:37:49;95691.81;;;19.68;55.97
73674;BME280;61975;48.660;10.164;2022-08-01T03:40:21;95690.59;;;19.69;55.80
73674;BME280;61975;48.660;10.164;2022-08-01T03:42:49;95692.50;;;19.72;55.99
73674;BME280;61975;48.660;10.164;2022-08-01T03:45:25;95699.94;;;19.66;56.29
73674;BME280;61975;48.660;10.164;2022-08-01T03:47:57;95703.50;;;19.66;56.17
73674;BME280;61975;48.660;10.164;2022-08-01T03:50:25;95700.94;;;19.72;56.24
73674;BME280;61975;48.660;10.164;2022-08-01T03:52:53;95702.63;;;19.69;56.20
73674;BME280;61975;48.660;10.164;2022-08-01T03:55:20;95700.69;;;19.66;56.62
73674;BME280;61975;48.660;10.164;2022-08-01T03:57:47;95695.94;;;19.63;56.81
73674;BME280;61975;48.660;10.164;2022-08-01T04:00:14;95693.94;;;19.64;56.88
73674;BME280;61975;48.660;10.164;2022-08-01T04:02:45;95695.25;;;19.59;57.10
73674;BME280;61975;48.660;10.164;2022-08-01T04:05:11;95702.91;;;19.59;57.04
73674;BME280;61975;48.660;10.164;2022-08-01T04:07:36;95698.41;;;19.61;57.09
73674;BME280;61975;48.660;10.164;2022-08-01T04:10:04;95694.38;;;19.62;57.01
73674;BME280;61975;48.660;10.164;2022-08-01T04:12:30;95704.81;;;19.62;57.30
73674;BME280;61975;48.660;10.164;2022-08-01T04:14:55;95700.44;;;19.61;57.26
73674;BME280;61975;48.660;10.164;2022-08-01T04:17:21;95710.03;;;19.63;57.29
73674;BME280;61975;48.660;10.164;2022-08-01T04:19:46;95708.81;;;19.64;57.44
73674;BME280;61975;48.660;10.164;2022-08-01T04:22:14;95709.50;;;19.68;57.73
73674;BME280;61975;48.660;10.164;2022-08-01T04:24:42;95716.66;;;19.73;57.81
73674;BME280;61975;48.660;10.164;2022-08-01T04:27:17;95715.66;;;19.79;57.99
73674;BME280;61975;48.660;10.164;2022-08-01T04:29:45;95722.00;;;19.83;57.66
73674;BME280;61975;48.660;10.164;2022-08-01T04:32:13;95725.19;;;19.85;57.75
73674;BME280;61975;48.660;10.164;2022-08-01T04:34:41;95729.31;;;19.97;57.15
73674;BME280;61975;48.660;10.164;2022-08-01T04:37:09;95718.66;;;19.88;57.78
73674;BME280;61975;48.660;10.164;2022-08-01T04:39:37;95726.69;;;19.90;57.47
73674;BME280;61975;48.660;10.164;2022-08-01T04:42:05;95719.09;;;19.87;57.70
73674;BME280;61975;48.660;10.164;2022-08-01T04:44:32;95721.13;;;19.86;57.69
73674;BME280;61975;48.660;10.164;2022-08-01T04:47:02;95730.38;;;19.87;57.87
73674;BME280;61975;48.660;10.164;2022-08-01T04:49:31;95731.94;;;19.88;57.87
73674;BME280;61975;48.660;10.164;2022-08-01T04:51:56;95735.47;;;19.92;57.86
73674;BME280;61975;48.660;10.164;2022-08-01T04:54:33;95744.97;;;19.98;58.02
73674;BME280;61975;48.660;10.164;2022-08-01T04:56:59;95741.59;;;20.03;57.85
73674;BME280;61975;48.660;10.164;2022-08-01T04:59:29;95737.47;;;20.07;57.52
73674;BME280;61975;48.660;10.164;2022-08-01T05:02:11;95752.00;;;20.06;57.91
73674;BME280;61975;48.660;10.164;2022-08-01T05:04:37;95744.53;;;19.99;58.06
73674;BME280;61975;48.660;10.164;2022-08-01T05:07:03;95748.47;;;20.02;58.47
73674;BME280;61975;48.660;10.164;2022-08-01T05:09:29;95748.75;;;20.07;58.00
73674;BME280;61975;48.660;10.164;2022-08-01T05:11:56;95744.97;;;19.98;58.13
73674;BME280;61975;48.660;10.164;2022-08-01T05:14:24;95751.59;;;19.91;58.86
73674;BME280;61975;48.660;10.164;2022-08-01T05:16:50;95754.84;;;19.90;59.08
73674;BME280;61975;48.660;10.164;2022-08-01T05:19:16;95750.69;;;19.94;58.96
73674;BME280;61975;48.660;10.164;2022-08-01T05:21:42;95751.59;;;19.91;59.14
73674;BME280;61975;48.660;10.164;2022-08-01T05:24:07;95750.09;;;19.87;59.19
73674;BME280;61975;48.660;10.164;2022-08-01T05:26:33;95751.66;;;19.88;59.51
73674;BME280;61975;48.660;10.164;2022-08-01T05:28:59;95754.94;;;19.86;59.30
73674;BME280;61975;48.660;10.164;2022-08-01T05:31:24;95754.47;;;19.88;59.47
73674;BME280;61975;48.660;10.164;2022-08-01T05:33:50;95754.75;;;19.93;59.32
73674;BME280;61975;48.660;10.164;2022-08-01T05:36:15;95757.22;;;19.91;59.46
73674;BME280;61975;48.660;10.164;2022-08-01T05:38:41;95751.50;;;19.95;59.33
73674;BME280;61975;48.660;10.164;2022-08-01T05:41:06;95757.75;;;20.02;59.10
73674;BME280;61975;48.660;10.164;2022-08-01T05:43:31;95760.00;;;20.07;58.96
73674;BME280;61975;48.660;10.164;2022-08-01T05:45:57;95757.75;;;20.02;59.37
73674;BME280;61975;48.660;10.164;2022-08-01T05:48:23;95764.06;;;20.06;59.35
73674;BME280;61975;48.660;10.164;2022-08-01T05:50:49;95766.38;;;20.11;59.13
73674;BME280;61975;48.660;10.164;2022-08-01T05:53:15;95751.06;;;20.12;59.54
73674;BME280;61975;48.660;10.164;2022-08-01T05:55:40;95762.50;;;20.21;59.28
73674;BME280;61975;48.660;10.164;2022-08-01T05:58:06;95765.50;;;20.30;59.01
73674;BME280;61975;48.660;10.164;2022-08-01T06:00:31;95758.09;;;20.36;58.63
73674;BME280;61975;48.660;10.164;2022-08-01T06:02:56;95766.25;;;20.47;58.26
73674;BME280;61975;48.660;10.164;2022-08-01T06:05:22;95758.03;;;20.52;58.55
73674;BME280;61975;48.660;10.164;2022-08-01T06:07:47;95763.13;;;20.57;58.15
73674;BME280;61975;48.660;10.164;2022-08-01T06:10:13;95774.75;;;20.59;58.30
73674;BME280;61975;48.660;10.164;2022-08-01T06:12:38;95767.94;;;20.73;58.19
73674;BME280;61975;48.660;10.164;2022-08-01T06:15:05;95765.16;;;20.85;57.72
73674;BME280;61975;48.660;10.164;2022-08-01T06:17:31;95770.97;;;20.94;57.95
73674;BME280;61975;48.660;10.164;2022-08-01T06:19:56;95776.97;;;20.96;57.84
73674;BME280;61975;48.660;10.164;2022-08-01T06:22:22;95784.28;;;20.94;57.94
73674;BME280;61975;48.660;10.164;2022-08-01T06:24:47;95779.44;;;20.94;58.09
73674;BME280;61975;48.660;10.164;2022-08-01T06:27:12;95771.50;;;20.89;58.34
73674;BME280;61975;48.660;10.164;2022-08-01T06:29:38;95777.84;;;20.93;58.67
73674;BME280;61975;48.660;10.164;2022-08-01T06:32:03;95780.59;;;20.97;58.81
73674;BME280;61975;48.660;10.164;2022-08-01T06:34:29;95782.78;;;20.89;58.58
73674;BME280;61975;48.660;10.164;2022-08-01T06:36:54;95787.97;;;20.91;58.71
73674;BME280;61975;48.660;10.164;2022-08-01T06:39:20;95785.66;;;21.02;58.73
73674;BME280;61975;48.660;10.164;2022-08-01T06:41:45;95779.59;;;21.16;58.50
73674;BME280;61975;48.660;10.164;2022-08-01T06:44:12;95777.25;;;21.27;57.89
73674;BME280;61975;48.660;10.164;2022-08-01T06:46:38;95781.91;;;21.33;57.82
73674;BME280;61975;48.660;10.164;2022-08-01T06:49:04;95780.09;;;21.39;57.95
73674;BME280;61975;48.660;10.164;2022-08-01T06:51:29;95772.53;;;21.49;57.62
73674;BME280;61975;48.660;10.164;2022-08-01T06:53:55;95773.78;;;21.60;57.32
73674;BME280;61975;48.660;10.164;2022-08-01T06:56:20;95770.72;;;21.67;57.18
73674;BME280;61975;48.660;10.164;2022-08-01T06:58:46;95769.53;;;21.81;56.98
73674;BME280;61975;48.660;10.164;2022-08-01T07:01:11;95769.63;;;21.90;56.88
73674;BME280;61975;48.660;10.164;2022-08-01T07:03:37;95766.66;;;22.06;56.11
73674;BME280;61975;48.660;10.164;2022-08-01T07:06:03;95771.19;;;22.04;56.51
73674;BME280;61975;48.660;10.164;2022-08-01T07:08:28;95763.16;;;22.15;55.89
73674;BME280;61975;48.660;10.164;2022-08-01T07:10:54;95760.97;;;22.19;55.43
73674;BME280;61975;48.660;10.164;2022-08-01T07:13:20;95757.66;;;22.33;55.02
73674;BME280;61975;48.660;10.164;2022-08-01T07:15:49;95759.78;;;22.41;54.49
73674;BME280;61975;48.660;10.164;2022-08-01T07:18:15;95757.53;;;22.49;54.35
73674;BME280;61975;48.660;10.164;2022-08-01T07:20:40;95745.72;;;22.63;54.05
73674;BME280;61975;48.660;10.164;2022-08-01T07:23:06;95749.28;;;22.76;53.74
73674;BME280;61975;48.660;10.164;2022-08-01T07:25:31;95754.25;;;22.84;53.61
73674;BME280;61975;48.660;10.164;2022-08-01T07:27:56;95742.56;;;22.82;52.74
73674;BME280;61975;48.660;10.164;2022-08-01T07:30:22;95746.91;;;22.74;53.09
73674;BME280;61975;48.660;10.164;2022-08-01T07:32:47;95747.22;;;22.76;53.06
73674;BME280;61975;48.660;10.164;2022-08-01T07:35:13;95749.50;;;22.81;52.86
73674;BME280;61975;48.660;10.164;2022-08-01T07:37:38;95752.53;;;22.87;52.87
73674;BME280;61975;48.660;10.164;2022-08-01T07:40:05;95744.03;;;22.87;52.27
73674;BME280;61975;48.660;10.164;2022-08-01T07:42:31;95740.94;;;22.94;52.65
73674;BME280;61975;48.660;10.164;2022-08-01T07:44:56;95748.81;;;22.99;52.16
73674;BME280;61975;48.660;10.164;2022-08-01T07:47:25;95741.38;;;23.14;51.72
73674;BME280;61975;48.660;10.164;2022-08-01T07:49:51;95751.66;;;23.20;52.11
73674;BME280;61975;48.660;10.164;2022-08-01T07:52:17;95751.53;;;23.24;52.13
73674;BME280;61975;48.660;10.164;2022-08-01T07:54:42;95757.19;;;23.24;51.10
73674;BME280;61975;48.660;10.164;2022-08-01T07:57:08;95752.84;;;23.32;50.67
73674;BME280;61975;48.660;10.164;2022-08-01T07:59:33;95750.94;;;23.29;50.31
73674;BME280;61975;48.660;10.164;2022-08-01T08:01:59;95755.22;;;23.33;50.94
73674;BME280;61975;48.660;10.164;2022-08-01T08:04:26;95753.78;;;23.29;50.44
73674;BME280;61975;48.660;10.164;2022-08-01T08:06:52;95757.59;;;23.35;50.92
73674;BME280;61975;48.660;10.164;2022-08-01T08:09:18;95749.03;;;23.26;51.02
73674;BME280;61975;48.660;10.164;2022-08-01T08:11:45;95758.53;;;23.32;50.71
73674;BME280;61975;48.660;10.164;2022-08-01T08:14:10;95748.81;;;23.42;50.87
73674;BME280;61975;48.660;10.164;2022-08-01T08:16:36;95741.09;;;23.42;50.79
73674;BME280;61975;48.660;10.164;2022-08-01T08:19:01;95750.03;;;23.32;50.98
73674;BME280;61975;48.660;10.164;2022-08-01T08:21:27;95748.75;;;23.33;51.25
73674;BME280;61975;48.660;10.164;2022-08-01T08:23:53;95735.84;;;23.32;51.44
73674;BME280;61975;48.660;10.164;2022-08-01T08:26:37;95741.25;;;23.39;51.61
73674;BME280;61975;48.660;10.164;2022-08-01T08:29:03;95736.56;;;23.45;50.79
73674;BME280;61975;48.660;10.164;2022-08-01T08:31:28;95738.31;;;23.51;50.99
73674;BME280;61975;48.660;10.164;2022-08-01T08:33:53;95750.81;;;23.63;50.53
73674;BME280;61975;48.660;10.164;2022-08-01T08:36:19;95753.81;;;23.68;50.19
73674;BME280;61975;48.660;10.164;2022-08-01T08:38:44;95752.66;;;23.57;50.56
73674;BME280;61975;48.660;10.164;2022-08-01T08:41:10;95751.09;;;23.56;50.64
73674;BME280;61975;48.660;10.164;2022-08-01T08:43:48;95753.94;;;23.56;51.12
73674;BME280;61975;48.660;10.164;2022-08-01T08:46:14;95750.75;;;23.54;50.93
73674;BME280;61975;48.660;10.164;2022-08-01T08:48:41;95751.75;;;23.60;50.73
73674;BME280;61975;48.660;10.164;2022-08-01T08:51:08;95754.94;;;23.71;50.86
73674;BME280;61975;48.660;10.164;2022-08-01T08:53:36;95749.88;;;23.66;50.95
73674;BME280;61975;48.660;10.164;2022-08-01T08:56:04;95749.31;;;23.80;50.25
73674;BME280;61975;48.660;10.164;2022-08-01T08:58:32;95743.31;;;23.78;50.76
73674;BME280;61975;48.660;10.164;2022-08-01T09:01:05;95751.41;;;23.88;50.57
73674;BME280;61975;48.660;10.164;2022-08-01T09:03:32;95747.97;;;23.93;50.81
73674;BME280;61975;48.660;10.164;2022-08-01T09:05:58;95754.63;;;24.08;50.24
73674;BME280;61975;48.660;10.164;2022-08-01T09:08:23;95750.13;;;24.29;49.04
73674;BME280;61975;48.660;10.164;2022-08-01T09:10:49;95756.41;;;24.24;49.71
73674;BME280;61975;48.660;10.164;2022-08-01T09:13:14;95752.94;;;24.38;50.08
73674;BME280;61975;48.660;10.164;2022-08-01T09:15:43;95770.03;;;24.56;48.56
73674;BME280;61975;48.660;10.164;2022-08-01T09:18:39;95768.09;;;24.44;48.71
73674;BME280;61975;48.660;10.164;2022-08-01T09:23:49;95770.75;;;24.30;49.14
73674;BME280;61975;48.660;10.164;2022-08-01T09:26:17;95777.38;;;24.27;49.00
73674;BME280;61975;48.660;10.164;2022-08-01T09:28:46;95760.19;;;24.30;49.13
73674;BME280;61975;48.660;10.164;2022-08-01T09:31:16;95757.69;;;24.32;49.42
73674;BME280;61975;48.660;10.164;2022-08-01T09:36:22;95760.28;;;24.66;48.27
73674;BME280;61975;48.660;10.164;2022-08-01T09:38:49;95770.22;;;24.80;47.67
73674;BME280;61975;48.660;10.164;2022-08-01T09:41:16;95762.66;;;24.86;47.83
73674;BME280;61975;48.660;10.164;2022-08-01T09:43:49;95756.66;;;24.93;47.02
73674;BME280;61975;48.660;10.164;2022-08-01T09:46:15;95764.06;;;24.90;47.05
73674;BME280;61975;48.660;10.164;2022-08-01T09:48:59;95757.75;;;24.68;47.12
73674;BME280;61975;48.660;10.164;2022-08-01T09:51:31;95751.78;;;24.75;47.70
73674;BME280;61975;48.660;10.164;2022-08-01T09:53:57;95744.50;;;24.92;47.64
73674;BME280;61975;48.660;10.164;2022-08-01T09:56:24;95763.75;;;25.06;46.44
73674;BME280;61975;48.660;10.164;2022-08-01T09:58:58;95757.63;;;24.90;46.70
73674;BME280;61975;48.660;10.164;2022-08-01T10:01:25;95752.56;;;25.03;46.76
73674;BME280;61975;48.660;10.164;2022-08-01T10:04:08;95759.31;;;25.23;46.28
73674;BME280;61975;48.660;10.164;2022-08-01T10:06:35;95754.72;;;25.26;45.80
73674;BME280;61975;48.660;10.164;2022-08-01T10:09:02;95763.28;;;25.17;46.11
73674;BME280;61975;48.660;10.164;2022-08-01T10:11:28;95757.13;;;25.09;46.09
73674;BME280;61975;48.660;10.164;2022-08-01T10:13:55;95750.16;;;25.10;46.27
73674;BME280;61975;48.660;10.164;2022-08-01T10:16:21;95752.69;;;25.26;45.90
73674;BME280;61975;48.660;10.164;2022-08-01T10:18:46;95739.72;;;25.43;46.09
73674;BME280;61975;48.660;10.164;2022-08-01T10:21:13;95749.44;;;25.69;45.47
73674;BME280;61975;48.660;10.164;2022-08-01T10:23:38;95738.50;;;25.77;44.66
73674;BME280;61975;48.660;10.164;2022-08-01T10:26:08;95750.34;;;25.75;44.96
73674;BME280;61975;48.660;10.164;2022-08-01T10:28:36;95739.81;;;25.58;45.71
73674;BME280;61975;48.660;10.164;2022-08-01T10:31:02;95746.78;;;25.66;45.30
73674;BME280;61975;48.660;10.164;2022-08-01T10:33:29;95755.31;;;25.66;44.58
73674;BME280;61975;48.660;10.164;2022-08-01T10:35:55;95738.38;;;25.71;44.47
73674;BME280;61975;48.660;10.164;2022-08-01T10:38:20;95732.94;;;25.82;44.60
73674;BME280;61975;48.660;10.164;2022-08-01T10:40:46;95730.44;;;25.84;45.02
73674;BME280;61975;48.660;10.164;2022-08-01T10:43:12;95725.25;;;25.74;45.34
73674;BME280;61975;48.660;10.164;2022-08-01T10:45:41;95729.22;;;25.67;44.53
73674;BME280;61975;48.660;10.164;2022-08-01T10:51:02;95734.53;;;25.83;45.26
73674;BME280;61975;48.660;10.164;2022-08-01T10:53:28;95731.94;;;26.03;43.89
73674;BME280;61975;48.660;10.164;2022-08-01T10:58:31;95718.06;;;26.20;43.87
73674;BME280;61975;48.660;10.164;2022-08-01T11:04:09;95734.53;;;25.83;44.31
73674;BME280;61975;48.660;10.164;2022-08-01T11:09:15;95726.59;;;25.46;45.87
73674;BME280;61975;48.660;10.164;2022-08-01T11:12:11;95724.25;;;25.26;46.36
73674;BME280;61975;48.660;10.164;2022-08-01T11:26:11;95726.66;;;24.92;47.28
73674;BME280;61975;48.660;10.164;2022-08-01T11:30:40;95726.53;;;24.95;47.20
73674;BME280;61975;48.660;10.164;2022-08-01T11:33:06;95729.66;;;24.97;46.97
73674;BME280;61975;48.660;10.164;2022-08-01T11:35:32;95721.94;;;24.98;47.11
73674;BME280;61975;48.660;10.164;2022-08-01T11:38:26;95712.47;;;25.01;47.76
73674;BME280;61975;48.660;10.164;2022-08-01T11:47:05;95719.91;;;24.98;47.58
73674;BME280;61975;48.660;10.164;2022-08-01T11:52:03;95707.88;;;25.03;47.23
73674;BME280;61975;48.660;10.164;2022-08-01T11:54:34;95708.50;;;25.16;48.00
73674;BME280;61975;48.660;10.164;2022-08-01T11:57:07;95708.13;;;25.41;47.02
73674;BME280;61975;48.660;10.164;2022-08-01T12:02:03;95696.16;;;25.79;45.93
73674;BME280;61975;48.660;10.164;2022-08-01T12:04:45;95689.25;;;26.03;45.48
73674;BME280;61975;48.660;10.164;2022-08-01T12:07:15;95684.00;;;26.34;44.87
73674;BME280;61975;48.660;10.164;2022-08-01T12:09:41;95679.75;;;26.53;43.79
73674;BME280;61975;48.660;10.164;2022-08-01T12:12:07;95689.03;;;26.63;42.87
73674;BME280;61975;48.660;10.164;2022-08-01T12:14:32;95676.69;;;26.81;42.84
73674;BME280;61975;48.660;10.164;2022-08-01T12:16:58;95684.97;;;27.08;41.97
73674;BME280;61975;48.660;10.164;2022-08-01T12:19:24;95664.38;;;27.27;41.84
73674;BME280;61975;48.660;10.164;2022-08-01T12:22:12;95669.84;;;27.16;42.24
73674;BME280;61975;48.660;10.164;2022-08-01T12:24:40;95678.31;;;27.11;42.11
73674;BME280;61975;48.660;10.164;2022-08-01T12:27:07;95683.03;;;27.14;41.70
73674;BME280;61975;48.660;10.164;2022-08-01T12:29:36;95671.81;;;27.10;41.66
73674;BME280;61975;48.660;10.164;2022-08-01T12:32:03;95666.72;;;27.14;41.32
73674;BME280;61975;48.660;10.164;2022-08-01T12:34:29;95667.78;;;27.02;41.46
73674;BME280;61975;48.660;10.164;2022-08-01T12:36:57;95671.22;;;26.92;41.57
73674;BME280;61975;48.660;10.164;2022-08-01T12:39:29;95664.16;;;26.87;41.86
73674;BME280;61975;48.660;10.164;2022-08-01T12:41:54;95661.41;;;26.93;41.61
73674;BME280;61975;48.660;10.164;2022-08-01T12:44:20;95672.19;;;27.03;41.60
73674;BME280;61975;48.660;10.164;2022-08-01T12:46:45;95665.72;;;27.03;41.57
73674;BME280;61975;48.660;10.164;2022-08-01T12:49:11;95667.59;;;27.06;41.08
73674;BME280;61975;48.660;10.164;2022-08-01T12:51:37;95661.50;;;27.13;41.26
73674;BME280;61975;48.660;10.164;2022-08-01T12:54:02;95664.19;;;27.31;41.19
73674;BME280;61975;48.660;10.164;2022-08-01T12:56:32;95672.13;;;27.56;40.75
73674;BME280;61975;48.660;10.164;2022-08-01T12:58:58;95659.41;;;27.71;40.37
73674;BME280;61975;48.660;10.164;2022-08-01T13:01:28;95653.31;;;27.93;40.44
73674;BME280;61975;48.660;10.164;2022-08-01T13:04:02;95648.97;;;28.17;39.66
73674;BME280;61975;48.660;10.164;2022-08-01T13:06:30;95657.91;;;28.25;39.28
73674;BME280;61975;48.660;10.164;2022-08-01T13:09:05;95651.56;;;28.35;39.23
73674;BME280;61975;48.660;10.164;2022-08-01T13:11:30;95664.25;;;28.34;38.52
73674;BME280;61975;48.660;10.164;2022-08-01T13:13:57;95667.38;;;28.16;39.04
73674;BME280;61975;48.660;10.164;2022-08-01T13:16:24;95661.66;;;27.96;39.35
73674;BME280;61975;48.660;10.164;2022-08-01T13:18:52;95666.09;;;27.83;39.07
73674;BME280;61975;48.660;10.164;2022-08-01T13:24:07;95660.63;;;27.36;39.69
73674;BME280;61975;48.660;10.164;2022-08-01T13:29:18;95657.66;;;26.87;40.91
73674;BME280;61975;48.660;10.164;2022-08-01T13:31:44;95662.81;;;26.74;41.29
73674;BME280;61975;48.660;10.164;2022-08-01T13:34:11;95669.72;;;26.58;41.16
73674;BME280;61975;48.660;10.164;2022-08-01T13:36:37;95658.00;;;26.41;41.06
73674;BME280;61975;48.660;10.164;2022-08-01T13:39:03;95652.69;;;26.34;41.70
73674;BME280;61975;48.660;10.164;2022-08-01T13:41:48;95659.19;;;26.35;41.98
73674;BME280;61975;48.660;10.164;2022-08-01T13:44:14;95657.59;;;26.34;42.61
73674;BME280;61975;48.660;10.164;2022-08-01T13:46:40;95664.56;;;26.33;42.99
73674;BME280;61975;48.660;10.164;2022-08-01T13:49:07;95661.34;;;26.40;42.99